Time;durP1;ratioP1;P1;durP2;ratioP2;P2;SDS_P1;SDS_P2;PMS_P1;PMS_P2;Temp;Humidity;BMP_temperature;BMP_pressure;BME280_temperature;BME280_humidity;BME280_pressure;Samples;Min_cycle;Max_cycle;Signal;HPM_P1;HPM_P2
2022/05/26 00:02:00;;;;;;;;;;;21.60;54.70;;;;;;467629;254;1186;-39
2022/05/26 00:04:01;;;;;;;;;;;21.60;54.60;;;;;;465767;255;1238;-39
2022/05/26 00:06:02;;;;;;;;;;;21.60;54.60;;;;;;467744;254;1202;-39
2022/05/26 00:08:04;;;;;;;;;;;21.60;54.50;;;;;;465756;255;2202;-39
2022/05/26 00:10:05;;;;;;;;;;;21.60;54.60;;;;;;468041;254;1317;-39
2022/05/26 00:12:07;;;;;;;;;;;21.70;54.60;;;;;;466206;255;1533;-39
2022/05/26 00:14:08;;;;;;;;;;;21.60;54.60;;;;;;468079;254;1232;-39
2022/05/26 00:16:10;;;;;;;;;;;21.60;54.70;;;;;;465781;255;1574;-39
2022/05/26 00:18:11;;;;;;;;;;;21.60;54.70;;;;;;467823;254;1248;-39
2022/05/26 00:20:12;;;;;;;;;;;21.60;54.70;;;;;;466204;255;1215;-39
2022/05/26 00:22:14;;;;;;;;;;;21.60;54.70;;;;;;467888;254;1226;-39
2022/05/26 00:24:15;;;;;;;;;;;21.60;54.70;;;;;;465811;255;1257;-39
2022/05/26 00:26:17;;;;;;;;;;;21.60;54.60;;;;;;467557;255;1205;-39
2022/05/26 00:28:18;;;;;;;;;;;21.60;54.60;;;;;;465757;255;2634;-39
2022/05/26 00:30:19;;;;;;;;;;;21.60;54.60;;;;;;467641;255;1536;-39
2022/05/26 00:32:20;;;;;;;;;;;21.70;54.60;;;;;;465765;255;1213;-39
2022/05/26 00:34:22;;;;;;;;;;;21.70;54.60;;;;;;467749;254;1261;-39
2022/05/26 00:36:38;;;;;;;;;;;21.60;54.60;;;;;;466026;255;1359;-39
2022/05/26 00:38:39;;;;;;;;;;;21.60;54.60;;;;;;467718;254;1256;-39
2022/05/26 00:40:40;;;;;;;;;;;21.60;54.60;;;;;;466258;255;1243;-39
2022/05/26 00:42:42;;;;;;;;;;;21.60;54.70;;;;;;467642;254;1185;-39
2022/05/26 00:44:43;;;;;;;;;;;21.60;54.70;;;;;;465824;255;1232;-39
2022/05/26 00:46:44;;;;;;;;;;;21.60;54.70;;;;;;467605;255;1192;-39
2022/05/26 00:48:46;;;;;;;;;;;21.60;54.60;;;;;;466146;255;2142;-39
2022/05/26 00:50:47;;;;;;;;;;;21.60;54.60;;;;;;467528;255;2420;-39
2022/05/26 00:52:48;;;;;;;;;;;21.60;54.60;;;;;;466033;255;1316;-39
2022/05/26 00:54:50;;;;;;;;;;;21.70;54.50;;;;;;467715;254;1212;-39
2022/05/26 00:56:51;;;;;;;;;;;21.70;54.50;;;;;;465789;255;1280;-39
2022/05/26 00:58:52;;;;;;;;;;;21.70;54.60;;;;;;467651;255;1245;-39
2022/05/26 01:00:54;;;;;;;;;;;21.60;54.60;;;;;;465947;255;1204;-39
2022/05/26 01:02:55;;;;;;;;;;;21.60;54.60;;;;;;468117;254;1225;-39
2022/05/26 01:04:56;;;;;;;;;;;21.60;54.60;;;;;;466281;255;1249;-39
2022/05/26 01:06:58;;;;;;;;;;;21.70;54.60;;;;;;468070;254;1224;-39
2022/05/26 01:08:59;;;;;;;;;;;21.60;54.50;;;;;;465910;255;2170;-39
2022/05/26 01:11:00;;;;;;;;;;;21.70;54.50;;;;;;467919;254;1206;-39
2022/05/26 01:13:02;;;;;;;;;;;21.70;54.40;;;;;;466029;255;1166;-39
2022/05/26 01:15:03;;;;;;;;;;;21.60;54.50;;;;;;468132;254;1062;-39
2022/05/26 01:17:04;;;;;;;;;;;21.70;54.50;;;;;;465866;255;1138;-39
2022/05/26 01:19:05;;;;;;;;;;;21.60;54.50;;;;;;467829;254;1224;-39
2022/05/26 01:21:07;;;;;;;;;;;21.60;54.50;;;;;;465754;255;1408;-39
2022/05/26 01:23:08;;;;;;;;;;;21.60;54.50;;;;;;467919;254;1242;-39
2022/05/26 01:25:09;;;;;;;;;;;21.60;54.60;;;;;;465831;255;1163;-39
2022/05/26 01:27:11;;;;;;;;;;;21.60;54.60;;;;;;467872;254;1581;-39
2022/05/26 01:29:12;;;;;;;;;;;21.60;54.50;;;;;;466293;255;2146;-39
2022/05/26 01:31:13;;;;;;;;;;;21.60;54.60;;;;;;468087;254;1243;-39
2022/05/26 01:33:15;;;;;;;;;;;21.70;54.50;;;;;;465926;255;1461;-39
2022/05/26 01:35:16;;;;;;;;;;;21.60;54.50;;;;;;467579;255;1308;-39
2022/05/26 01:37:17;;;;;;;;;;;21.60;54.60;;;;;;465900;255;1617;-39
2022/05/26 01:39:19;;;;;;;;;;;21.60;54.70;;;;;;467657;254;1513;-39
2022/05/26 01:41:20;;;;;;;;;;;21.60;54.70;;;;;;465831;255;1323;-39
2022/05/26 01:43:21;;;;;;;;;;;21.60;54.70;;;;;;467653;254;1444;-39
2022/05/26 01:45:23;;;;;;;;;;;21.60;54.80;;;;;;466177;255;1358;-39
2022/05/26 01:47:24;;;;;;;;;;;21.60;54.70;;;;;;467553;255;1482;-39
2022/05/26 01:49:25;;;;;;;;;;;21.60;54.60;;;;;;466151;255;2208;-39
2022/05/26 01:51:26;;;;;;;;;;;21.60;54.70;;;;;;467604;254;1530;-39
2022/05/26 01:53:28;;;;;;;;;;;21.60;54.70;;;;;;465875;255;1243;-39
2022/05/26 01:55:29;;;;;;;;;;;21.60;54.60;;;;;;467759;254;1165;-39
2022/05/26 01:57:30;;;;;;;;;;;21.60;54.70;;;;;;465979;255;1192;-39
2022/05/26 01:59:32;;;;;;;;;;;21.60;54.70;;;;;;467712;254;1265;-39
2022/05/26 02:01:33;;;;;;;;;;;21.60;54.60;;;;;;465886;255;1314;-39
2022/05/26 02:03:34;;;;;;;;;;;21.60;54.70;;;;;;468136;254;957;-39
2022/05/26 02:05:36;;;;;;;;;;;21.60;54.70;;;;;;466009;255;1062;-39
2022/05/26 02:07:37;;;;;;;;;;;21.60;54.70;;;;;;467877;254;1501;-39
2022/05/26 02:09:41;;;;;;;;;;;21.60;54.70;;;;;;465970;255;2254;-39
2022/05/26 02:11:40;;;;;;;;;;;21.60;54.70;;;;;;467950;255;2263;-39
2022/05/26 02:13:41;;;;;;;;;;;21.60;54.70;;;;;;466235;255;1184;-39
2022/05/26 02:15:42;;;;;;;;;;;21.60;54.70;;;;;;467722;255;1320;-39
2022/05/26 02:17:44;;;;;;;;;;;21.60;54.60;;;;;;465926;255;1223;-39
2022/05/26 02:19:45;;;;;;;;;;;21.60;54.70;;;;;;468121;254;1197;-39
2022/05/26 02:21:46;;;;;;;;;;;21.60;54.60;;;;;;465826;255;1253;-39
2022/05/26 02:23:48;;;;;;;;;;;21.60;54.60;;;;;;467943;254;1391;-39
2022/05/26 02:25:49;;;;;;;;;;;21.60;54.60;;;;;;466169;255;1380;-39
2022/05/26 02:27:50;;;;;;;;;;;21.60;54.60;;;;;;467466;255;1413;-39
2022/05/26 02:29:52;;;;;;;;;;;21.60;54.60;;;;;;466197;255;2216;-39
2022/05/26 02:31:53;;;;;;;;;;;21.60;54.70;;;;;;467909;254;1186;-39
2022/05/26 02:33:54;;;;;;;;;;;21.60;54.70;;;;;;466263;255;1208;-39
2022/05/26 02:35:55;;;;;;;;;;;21.60;54.60;;;;;;467579;255;1236;-39
2022/05/26 02:37:57;;;;;;;;;;;21.60;54.70;;;;;;466161;255;1179;-39
2022/05/26 02:39:58;;;;;;;;;;;21.60;54.60;;;;;;467738;254;1218;-39
2022/05/26 02:41:59;;;;;;;;;;;21.60;54.60;;;;;;466100;255;1252;-39
2022/05/26 02:44:01;;;;;;;;;;;21.60;54.50;;;;;;467660;255;1242;-39
2022/05/26 02:46:02;;;;;;;;;;;21.60;54.50;;;;;;465970;255;1228;-39
2022/05/26 02:48:03;;;;;;;;;;;21.60;54.60;;;;;;467598;255;1216;-39
2022/05/26 02:50:05;;;;;;;;;;;21.60;54.60;;;;;;466171;255;2138;-39
2022/05/26 02:52:06;;;;;;;;;;;21.60;54.60;;;;;;467591;255;1600;-39
2022/05/26 02:54:07;;;;;;;;;;;21.60;54.70;;;;;;465841;255;1232;-39
2022/05/26 02:56:09;;;;;;;;;;;21.60;54.60;;;;;;468023;254;1265;-39
2022/05/26 02:58:10;;;;;;;;;;;21.60;54.60;;;;;;465796;255;1260;-39
2022/05/26 03:00:12;;;;;;;;;;;21.60;54.70;;;;;;468047;254;1176;-39
2022/05/26 03:02:13;;;;;;;;;;;21.60;54.60;;;;;;466073;255;2104;-39
2022/05/26 03:04:14;;;;;;;;;;;21.60;54.60;;;;;;468058;254;1367;-39
2022/05/26 03:06:15;;;;;;;;;;;21.60;54.50;;;;;;466012;255;1155;-39
2022/05/26 03:08:17;;;;;;;;;;;21.60;54.60;;;;;;467924;254;1302;-39
2022/05/26 03:10:18;;;;;;;;;;;21.60;54.60;;;;;;465826;255;2212;-39
2022/05/26 03:12:19;;;;;;;;;;;21.60;54.50;;;;;;467831;254;1230;-39
2022/05/26 03:14:21;;;;;;;;;;;21.60;54.60;;;;;;465867;255;1286;-39
2022/05/26 03:16:22;;;;;;;;;;;21.60;54.60;;;;;;468007;254;1415;-39
2022/05/26 03:18:23;;;;;;;;;;;21.60;54.70;;;;;;465847;254;1604;-39
2022/05/26 03:20:24;;;;;;;;;;;21.60;54.60;;;;;;467692;254;1160;-39
2022/05/26 03:22:26;;;;;;;;;;;21.60;54.60;;;;;;465806;255;1245;-39
2022/05/26 03:24:27;;;;;;;;;;;21.60;54.60;;;;;;468027;254;1357;-39
2022/05/26 03:26:28;;;;;;;;;;;21.60;54.60;;;;;;465847;255;1285;-39
2022/05/26 03:28:31;;;;;;;;;;;21.60;54.60;;;;;;467706;255;1319;-39
2022/05/26 03:30:31;;;;;;;;;;;21.60;54.70;;;;;;465803;256;2206;-39
2022/05/26 03:32:33;;;;;;;;;;;21.60;54.70;;;;;;467588;255;1180;-39
2022/05/26 03:41:33;;;;;;;;;;;21.60;54.80;;;;;;467925;254;1203;-39
2022/05/26 03:43:35;;;;;;;;;;;21.60;54.70;;;;;;466242;255;1396;-39
2022/05/26 03:45:36;;;;;;;;;;;21.60;54.60;;;;;;468119;254;1365;-39
2022/05/26 03:47:39;;;;;;;;;;;21.60;54.70;;;;;;465961;255;1345;-39
2022/05/26 03:49:39;;;;;;;;;;;21.60;54.70;;;;;;468008;255;2137;-39
2022/05/26 03:51:40;;;;;;;;;;;21.50;54.70;;;;;;465849;255;1267;-39
2022/05/26 03:53:42;;;;;;;;;;;21.50;54.70;;;;;;468059;254;1222;-39
2022/05/26 03:55:43;;;;;;;;;;;21.50;54.70;;;;;;465958;255;1250;-39
2022/05/26 03:57:44;;;;;;;;;;;21.60;54.70;;;;;;467934;254;1551;-39
2022/05/26 03:59:46;;;;;;;;;;;21.60;54.70;;;;;;465901;255;1181;-39
2022/05/26 04:01:47;;;;;;;;;;;21.60;54.70;;;;;;467773;254;1303;-39
2022/05/26 04:03:48;;;;;;;;;;;21.50;54.80;;;;;;465823;255;1199;-39
2022/05/26 04:05:50;;;;;;;;;;;21.50;54.80;;;;;;467606;255;1361;-39
2022/05/26 04:07:51;;;;;;;;;;;21.50;54.80;;;;;;466120;255;1206;-39
2022/05/26 04:09:52;;;;;;;;;;;21.60;54.80;;;;;;467957;254;2209;-39
2022/05/26 04:11:54;;;;;;;;;;;21.60;54.70;;;;;;466009;255;1279;-39
2022/05/26 04:13:55;;;;;;;;;;;21.50;54.70;;;;;;468114;254;1292;-39
2022/05/26 04:15:56;;;;;;;;;;;21.60;54.70;;;;;;465857;255;1285;-39
2022/05/26 04:17:58;;;;;;;;;;;21.60;54.80;;;;;;467702;255;1239;-39
2022/05/26 04:19:59;;;;;;;;;;;21.60;54.80;;;;;;466274;255;1283;-39
2022/05/26 04:22:15;;;;;;;;;;;21.60;54.70;;;;;;468038;253;1311;-39
2022/05/26 04:24:17;;;;;;;;;;;21.50;54.70;;;;;;466171;255;1221;-39
2022/05/26 04:26:18;;;;;;;;;;;21.50;54.80;;;;;;467749;254;1275;-39
2022/05/26 04:28:19;;;;;;;;;;;21.60;54.70;;;;;;466190;255;1221;-39
2022/05/26 04:30:21;;;;;;;;;;;21.60;54.70;;;;;;468033;254;2198;-39
2022/05/26 04:32:22;;;;;;;;;;;21.60;54.70;;;;;;466219;255;1220;-39
2022/05/26 04:34:23;;;;;;;;;;;21.60;54.60;;;;;;468097;254;1280;-39
2022/05/26 04:36:25;;;;;;;;;;;21.60;54.60;;;;;;466113;255;1392;-39
2022/05/26 04:38:26;;;;;;;;;;;21.60;54.60;;;;;;467667;255;1223;-39
2022/05/26 04:40:27;;;;;;;;;;;21.50;54.60;;;;;;465804;255;1250;-39
2022/05/26 04:42:29;;;;;;;;;;;21.50;54.70;;;;;;467640;255;1169;-39
2022/05/26 04:44:31;;;;;;;;;;;21.60;54.60;;;;;;466076;255;1090;-39
2022/05/26 04:46:32;;;;;;;;;;;21.60;54.60;;;;;;467827;254;1334;-39
2022/05/26 04:48:33;;;;;;;;;;;21.50;54.60;;;;;;466273;255;1216;-39
2022/05/26 04:50:35;;;;;;;;;;;21.60;54.70;;;;;;468092;254;2137;-39
2022/05/26 04:52:37;;;;;;;;;;;21.60;54.70;;;;;;466237;255;1361;-39
2022/05/26 04:54:38;;;;;;;;;;;21.60;54.60;;;;;;467978;254;1231;-39
2022/05/26 04:56:40;;;;;;;;;;;21.60;54.50;;;;;;465834;255;1622;-39
2022/05/26 04:58:41;;;;;;;;;;;21.60;54.50;;;;;;467990;254;1174;-39
2022/05/26 05:00:42;;;;;;;;;;;21.60;54.60;;;;;;466151;255;1337;-39
2022/05/26 05:02:44;;;;;;;;;;;21.60;54.50;;;;;;468069;254;1416;-39
2022/05/26 05:04:48;;;;;;;;;;;21.60;54.50;;;;;;466313;255;1183;-39
2022/05/26 05:06:46;;;;;;;;;;;21.60;54.60;;;;;;467772;255;2043;-39
2022/05/26 05:08:47;;;;;;;;;;;21.60;54.60;;;;;;466302;255;1070;-39
2022/05/26 05:10:49;;;;;;;;;;;21.60;54.50;;;;;;468041;254;2170;-39
2022/05/26 05:12:50;;;;;;;;;;;21.60;54.40;;;;;;465850;255;1577;-39
2022/05/26 05:14:52;;;;;;;;;;;21.60;54.50;;;;;;468124;254;1161;-39
2022/05/26 05:16:53;;;;;;;;;;;21.60;54.50;;;;;;466154;255;1515;-39
2022/05/26 05:18:54;;;;;;;;;;;21.60;54.60;;;;;;468077;254;1330;-39
2022/05/26 05:20:56;;;;;;;;;;;21.60;54.50;;;;;;466078;255;1230;-39
2022/05/26 05:22:57;;;;;;;;;;;21.60;54.50;;;;;;468013;255;1225;-39
2022/05/26 05:24:58;;;;;;;;;;;21.60;54.60;;;;;;465784;255;1326;-39
2022/05/26 05:27:00;;;;;;;;;;;21.60;54.60;;;;;;467662;254;1169;-39
2022/05/26 05:29:01;;;;;;;;;;;21.50;54.60;;;;;;466236;255;1245;-39
2022/05/26 05:31:03;;;;;;;;;;;21.60;54.70;;;;;;467926;254;2134;-39
2022/05/26 05:33:04;;;;;;;;;;;21.50;54.70;;;;;;465972;255;1190;-39
2022/05/26 05:35:05;;;;;;;;;;;21.60;54.70;;;;;;467631;255;1197;-39
2022/05/26 05:37:07;;;;;;;;;;;21.60;54.70;;;;;;465881;255;1275;-39
2022/05/26 05:39:08;;;;;;;;;;;21.60;54.70;;;;;;467661;255;1220;-39
2022/05/26 05:41:09;;;;;;;;;;;21.60;54.60;;;;;;466160;255;1241;-39
2022/05/26 05:43:11;;;;;;;;;;;21.60;54.60;;;;;;467868;254;1193;-39
2022/05/26 05:45:12;;;;;;;;;;;21.60;54.60;;;;;;466105;255;1242;-39
2022/05/26 05:47:13;;;;;;;;;;;21.60;54.70;;;;;;467947;254;1241;-39
2022/05/26 05:49:14;;;;;;;;;;;21.60;54.60;;;;;;466014;255;1345;-39
2022/05/26 05:51:16;;;;;;;;;;;21.60;54.70;;;;;;467608;254;2185;-39
2022/05/26 05:53:17;;;;;;;;;;;21.60;54.70;;;;;;466104;255;1225;-39
2022/05/26 05:55:18;;;;;;;;;;;21.60;54.70;;;;;;467711;255;1288;-39
2022/05/26 05:57:20;;;;;;;;;;;21.60;54.70;;;;;;465796;255;1189;-39
2022/05/26 05:59:21;;;;;;;;;;;21.60;54.60;;;;;;468100;254;1221;-39
2022/05/26 06:01:22;;;;;;;;;;;21.60;54.70;;;;;;465872;255;1359;-39
2022/05/26 06:03:24;;;;;;;;;;;21.50;54.70;;;;;;468059;254;1252;-39
2022/05/26 06:05:25;;;;;;;;;;;21.60;54.80;;;;;;466188;255;1143;-39
2022/05/26 06:07:27;;;;;;;;;;;21.60;54.70;;;;;;467707;254;1516;-39
2022/05/26 06:09:28;;;;;;;;;;;21.50;54.70;;;;;;466266;255;1296;-39
2022/05/26 06:11:29;;;;;;;;;;;21.60;54.70;;;;;;467829;254;2204;-39
2022/05/26 06:13:30;;;;;;;;;;;21.60;54.70;;;;;;466242;255;1540;-39
2022/05/26 06:15:33;;;;;;;;;;;21.60;54.60;;;;;;467883;254;1182;-39
2022/05/26 06:17:33;;;;;;;;;;;21.60;54.60;;;;;;465778;255;1687;-39
2022/05/26 06:19:35;;;;;;;;;;;21.60;54.60;;;;;;467990;254;1167;-39
2022/05/26 06:21:36;;;;;;;;;;;21.60;54.50;;;;;;465893;255;1301;-39
2022/05/26 06:23:38;;;;;;;;;;;21.60;54.60;;;;;;468057;254;1281;-39
2022/05/26 06:25:39;;;;;;;;;;;21.60;54.50;;;;;;466028;255;1220;-39
2022/05/26 06:30:00;;;;;;;;;;;21.60;54.50;;;;;;465850;255;2155;-39
2022/05/26 06:39:06;;;;;;;;;;;21.70;54.30;;;;;;466230;255;1245;-39
2022/05/26 06:43:27;;;;;;;;;;;21.50;54.50;;;;;;465890;255;1348;-39
2022/05/26 06:45:28;;;;;;;;;;;21.60;54.50;;;;;;468091;254;1402;-39
2022/05/26 06:47:30;;;;;;;;;;;21.60;54.30;;;;;;465934;255;1417;-39
2022/05/26 06:49:31;;;;;;;;;;;21.60;54.40;;;;;;467869;254;2264;-39
2022/05/26 06:51:36;;;;;;;;;;;21.60;54.30;;;;;;466179;255;2213;-39
2022/05/26 06:53:33;;;;;;;;;;;21.60;54.30;;;;;;467408;255;1402;-39
2022/05/26 06:55:35;;;;;;;;;;;21.70;54.30;;;;;;466222;255;1156;-39
2022/05/26 06:57:36;;;;;;;;;;;21.60;54.40;;;;;;467582;254;1553;-39
2022/05/26 06:59:37;;;;;;;;;;;21.60;54.40;;;;;;465815;255;1238;-39
2022/05/26 07:01:39;;;;;;;;;;;21.60;54.40;;;;;;467959;254;1503;-39
2022/05/26 07:03:40;;;;;;;;;;;21.60;54.40;;;;;;465818;255;1201;-39
2022/05/26 07:05:41;;;;;;;;;;;21.60;54.40;;;;;;467655;254;1362;-39
2022/05/26 07:07:43;;;;;;;;;;;21.60;54.40;;;;;;466104;255;1162;-39
2022/05/26 07:09:44;;;;;;;;;;;21.60;54.40;;;;;;467652;255;1224;-39
2022/05/26 07:11:45;;;;;;;;;;;21.60;54.40;;;;;;465691;255;2138;-39
2022/05/26 07:13:47;;;;;;;;;;;21.50;54.40;;;;;;467683;254;1304;-39
2022/05/26 07:15:48;;;;;;;;;;;21.60;54.40;;;;;;466235;255;1261;-39
2022/05/26 07:17:49;;;;;;;;;;;21.60;54.30;;;;;;467685;255;1577;-39
2022/05/26 07:19:51;;;;;;;;;;;21.60;54.20;;;;;;465835;255;1316;-39
2022/05/26 07:21:52;;;;;;;;;;;21.60;54.30;;;;;;468024;254;1566;-39
2022/05/26 07:23:53;;;;;;;;;;;21.50;54.30;;;;;;466238;255;1308;-39
2022/05/26 07:25:54;;;;;;;;;;;21.60;54.20;;;;;;468025;254;1282;-39
2022/05/26 07:27:56;;;;;;;;;;;21.60;54.20;;;;;;466102;255;1383;-39
2022/05/26 07:29:57;;;;;;;;;;;21.60;54.20;;;;;;467563;255;1720;-39
2022/05/26 07:31:59;;;;;;;;;;;21.50;54.20;;;;;;466062;255;2134;-39
2022/05/26 07:34:00;;;;;;;;;;;21.50;54.20;;;;;;468125;254;1193;-39
2022/05/26 07:36:01;;;;;;;;;;;21.60;54.20;;;;;;466107;255;1228;-39
2022/05/26 07:42:41;;;;;;;;;;;21.60;54.10;;;;;;467947;254;1272;-39
2022/05/26 07:44:43;;;;;;;;;;;21.60;54.00;;;;;;466233;255;1204;-39
2022/05/26 07:46:44;;;;;;;;;;;21.60;54.10;;;;;;467639;255;1179;-39
2022/05/26 07:48:45;;;;;;;;;;;21.60;54.10;;;;;;466117;255;1621;-39
2022/05/26 07:50:47;;;;;;;;;;;21.50;54.00;;;;;;467989;254;2149;-39
2022/05/26 07:52:48;;;;;;;;;;;21.60;54.00;;;;;;465895;255;1353;-39
2022/05/26 07:54:49;;;;;;;;;;;21.60;54.00;;;;;;468055;254;1241;-39
2022/05/26 07:56:51;;;;;;;;;;;21.60;54.00;;;;;;466213;255;1193;-39
2022/05/26 07:58:52;;;;;;;;;;;21.60;53.90;;;;;;467830;254;1208;-39
2022/05/26 08:00:54;;;;;;;;;;;21.60;53.90;;;;;;466017;255;1304;-39
2022/05/26 08:02:55;;;;;;;;;;;21.50;53.90;;;;;;468032;254;1549;-39
2022/05/26 08:04:56;;;;;;;;;;;21.50;54.00;;;;;;465854;255;1213;-39
2022/05/26 08:06:57;;;;;;;;;;;21.50;53.90;;;;;;467585;255;1638;-39
2022/05/26 08:08:59;;;;;;;;;;;21.50;54.00;;;;;;466247;255;1710;-39
2022/05/26 08:11:00;;;;;;;;;;;21.50;53.90;;;;;;467972;254;2125;-39
2022/05/26 08:13:02;;;;;;;;;;;21.60;53.90;;;;;;465753;254;1351;-39
2022/05/26 08:15:04;;;;;;;;;;;21.60;53.80;;;;;;467864;255;1571;-39
2022/05/26 08:17:04;;;;;;;;;;;21.60;53.80;;;;;;465772;255;1532;-39
2022/05/26 08:19:06;;;;;;;;;;;21.60;53.80;;;;;;467707;255;1244;-39
2022/05/26 08:21:07;;;;;;;;;;;21.60;53.80;;;;;;465818;255;1273;-39
2022/05/26 08:23:08;;;;;;;;;;;21.50;54.00;;;;;;467674;255;1282;-39
2022/05/26 08:25:10;;;;;;;;;;;21.50;53.90;;;;;;466165;255;1213;-39
2022/05/26 08:27:11;;;;;;;;;;;21.50;53.80;;;;;;468057;254;1194;-39
2022/05/26 08:29:12;;;;;;;;;;;21.50;53.90;;;;;;466001;255;1200;-39
2022/05/26 08:31:14;;;;;;;;;;;21.50;53.90;;;;;;468053;254;2141;-39
2022/05/26 08:33:15;;;;;;;;;;;21.50;53.90;;;;;;466208;255;1632;-39
2022/05/26 08:35:17;;;;;;;;;;;21.50;53.90;;;;;;467681;254;1128;-39
2022/05/26 08:37:17;;;;;;;;;;;21.50;53.80;;;;;;465872;255;2439;-39
2022/05/26 08:39:19;;;;;;;;;;;21.50;53.70;;;;;;468113;254;1051;-39
2022/05/26 08:41:21;;;;;;;;;;;21.50;53.70;;;;;;465810;255;1289;-39
2022/05/26 08:43:21;;;;;;;;;;;21.50;53.70;;;;;;468074;254;1276;-39
2022/05/26 08:45:23;;;;;;;;;;;21.50;53.80;;;;;;465823;255;1337;-39
2022/05/26 08:47:24;;;;;;;;;;;21.50;53.80;;;;;;467830;254;1416;-39
2022/05/26 08:49:25;;;;;;;;;;;21.50;53.90;;;;;;466218;255;1218;-39
2022/05/26 08:51:27;;;;;;;;;;;21.50;53.90;;;;;;467890;254;2325;-39
2022/05/26 08:53:28;;;;;;;;;;;21.50;53.80;;;;;;465788;255;1181;-39
2022/05/26 08:55:29;;;;;;;;;;;21.50;53.70;;;;;;467669;255;1564;-39
2022/05/26 08:57:31;;;;;;;;;;;21.50;53.70;;;;;;466167;255;1568;-39
2022/05/26 08:59:33;;;;;;;;;;;21.50;53.70;;;;;;467858;254;1237;-39
2022/05/26 09:01:34;;;;;;;;;;;21.50;53.70;;;;;;465791;255;1231;-39
2022/05/26 09:03:35;;;;;;;;;;;21.50;53.70;;;;;;467839;254;1114;-39
2022/05/26 09:05:36;;;;;;;;;;;21.50;53.70;;;;;;465854;255;1293;-39
2022/05/26 09:14:38;;;;;;;;;;;21.50;53.70;;;;;;465712;255;1216;-39
2022/05/26 09:16:37;;;;;;;;;;;21.60;53.60;;;;;;467655;255;2316;-39
2022/05/26 09:18:38;;;;;;;;;;;21.50;53.60;;;;;;466047;255;1254;-39
2022/05/26 09:20:39;;;;;;;;;;;21.50;53.60;;;;;;468031;254;1267;-39
2022/05/26 09:22:41;;;;;;;;;;;21.50;53.60;;;;;;465845;255;1225;-39
2022/05/26 09:24:42;;;;;;;;;;;21.50;53.60;;;;;;468086;254;1176;-39
2022/05/26 09:26:43;;;;;;;;;;;21.50;53.60;;;;;;466206;255;1179;-39
2022/05/26 09:28:46;;;;;;;;;;;21.50;53.60;;;;;;468103;254;1277;-39
2022/05/26 09:30:46;;;;;;;;;;;21.50;53.60;;;;;;465801;255;2081;-39
2022/05/26 09:32:48;;;;;;;;;;;21.50;53.70;;;;;;468024;254;2126;-39
2022/05/26 09:34:49;;;;;;;;;;;21.50;53.50;;;;;;465888;255;1145;-39
2022/05/26 09:36:50;;;;;;;;;;;21.50;53.60;;;;;;467938;254;1236;-39
2022/05/26 09:38:52;;;;;;;;;;;21.50;53.50;;;;;;465850;255;1341;-39
2022/05/26 09:40:53;;;;;;;;;;;21.50;53.60;;;;;;467710;254;1178;-39
2022/05/26 09:42:55;;;;;;;;;;;21.50;53.60;;;;;;466040;255;1282;-39
2022/05/26 09:44:56;;;;;;;;;;;21.50;53.60;;;;;;467867;255;2402;-39
2022/05/26 09:46:57;;;;;;;;;;;21.50;53.50;;;;;;466141;255;1191;-39
2022/05/26 09:48:58;;;;;;;;;;;21.50;53.60;;;;;;467850;254;1216;-39
2022/05/26 09:51:00;;;;;;;;;;;21.40;53.60;;;;;;465870;255;2194;-39
2022/05/26 09:53:01;;;;;;;;;;;21.50;53.70;;;;;;467910;254;1179;-39
2022/05/26 09:55:03;;;;;;;;;;;21.50;53.70;;;;;;466118;255;1295;-39
2022/05/26 09:57:04;;;;;;;;;;;21.50;53.60;;;;;;467935;255;2367;-39
2022/05/26 09:59:05;;;;;;;;;;;21.50;53.50;;;;;;466244;255;1188;-39
2022/05/26 10:01:06;;;;;;;;;;;21.50;53.30;;;;;;467630;255;1294;-39
2022/05/26 10:03:08;;;;;;;;;;;21.50;53.40;;;;;;465834;255;1295;-39
2022/05/26 10:05:09;;;;;;;;;;;21.50;53.40;;;;;;467678;255;1225;-39
2022/05/26 10:07:11;;;;;;;;;;;21.50;53.50;;;;;;465709;255;1323;-39
2022/05/26 10:09:12;;;;;;;;;;;21.50;53.50;;;;;;467713;254;1452;-39
2022/05/26 10:11:13;;;;;;;;;;;21.50;53.40;;;;;;465701;255;2139;-39
2022/05/26 10:13:15;;;;;;;;;;;21.50;53.50;;;;;;468020;254;1184;-39
2022/05/26 10:15:16;;;;;;;;;;;21.50;53.50;;;;;;465960;255;1118;-39
2022/05/26 10:17:19;;;;;;;;;;;21.50;53.50;;;;;;467783;254;1259;-39
2022/05/26 10:19:19;;;;;;;;;;;21.50;53.50;;;;;;466126;256;2316;-39
2022/05/26 10:21:20;;;;;;;;;;;21.50;53.50;;;;;;468053;254;1596;-39
2022/05/26 10:23:21;;;;;;;;;;;21.50;53.50;;;;;;465828;255;1593;-39
2022/05/26 10:25:22;;;;;;;;;;;21.50;53.50;;;;;;467956;254;1341;-39
2022/05/26 10:27:24;;;;;;;;;;;21.50;53.40;;;;;;465935;255;1554;-39
2022/05/26 10:29:25;;;;;;;;;;;21.50;53.30;;;;;;467970;254;1506;-39
2022/05/26 10:31:26;;;;;;;;;;;21.50;53.30;;;;;;465836;255;2938;-39
2022/05/26 10:33:28;;;;;;;;;;;21.50;53.30;;;;;;467667;255;1266;-39
2022/05/26 10:35:29;;;;;;;;;;;21.50;53.20;;;;;;465864;255;1267;-39
2022/05/26 10:37:30;;;;;;;;;;;21.50;53.30;;;;;;467946;254;1229;-39
2022/05/26 10:39:32;;;;;;;;;;;21.50;53.30;;;;;;465959;255;1351;-39
2022/05/26 10:41:33;;;;;;;;;;;21.50;53.40;;;;;;467553;255;1237;-39
2022/05/26 10:43:34;;;;;;;;;;;21.50;53.30;;;;;;466094;255;1178;-39
2022/05/26 10:45:36;;;;;;;;;;;21.50;53.40;;;;;;467873;254;1179;-39
2022/05/26 10:47:37;;;;;;;;;;;21.50;53.50;;;;;;466150;255;1217;-39
2022/05/26 10:49:38;;;;;;;;;;;21.40;53.50;;;;;;467656;255;1252;-39
2022/05/26 10:51:40;;;;;;;;;;;21.40;53.60;;;;;;465883;255;2139;-39
2022/05/26 10:53:41;;;;;;;;;;;21.50;53.40;;;;;;468112;254;1219;-39
2022/05/26 10:55:43;;;;;;;;;;;21.50;53.40;;;;;;466259;255;1398;-39
2022/05/26 10:57:44;;;;;;;;;;;21.50;53.30;;;;;;467648;255;1189;-39
2022/05/26 10:59:45;;;;;;;;;;;21.50;53.30;;;;;;465862;255;1264;-39
2022/05/26 11:01:46;;;;;;;;;;;21.50;53.30;;;;;;467793;254;1212;-39
2022/05/26 11:03:48;;;;;;;;;;;21.50;53.30;;;;;;465851;255;1163;-39
2022/05/26 11:05:50;;;;;;;;;;;21.50;53.30;;;;;;467702;254;1349;-39
2022/05/26 11:07:50;;;;;;;;;;;21.50;53.30;;;;;;466157;255;2474;-39
2022/05/26 11:09:52;;;;;;;;;;;21.50;53.30;;;;;;468105;254;1225;-39
2022/05/26 11:11:53;;;;;;;;;;;21.50;53.20;;;;;;465945;255;2131;-39
2022/05/26 11:13:54;;;;;;;;;;;21.50;53.20;;;;;;467683;255;1165;-39
2022/05/26 11:18:15;;;;;;;;;;;21.50;53.10;;;;;;467681;254;1103;-39
2022/05/26 11:20:17;;;;;;;;;;;21.50;53.10;;;;;;466157;255;1254;-39
2022/05/26 11:22:18;;;;;;;;;;;21.50;53.20;;;;;;467645;255;1213;-39
2022/05/26 11:24:19;;;;;;;;;;;21.50;53.20;;;;;;465859;255;1290;-39
2022/05/26 11:26:21;;;;;;;;;;;21.50;53.10;;;;;;467676;255;1244;-39
2022/05/26 11:28:22;;;;;;;;;;;21.50;53.20;;;;;;466057;255;1057;-39
2022/05/26 11:37:38;;;;;;;;;;;21.50;53.20;;;;;;467555;254;1258;-39
2022/05/26 11:39:38;;;;;;;;;;;21.50;53.20;;;;;;465898;256;2336;-39
2022/05/26 11:41:40;;;;;;;;;;;21.50;53.30;;;;;;467673;255;1201;-39
2022/05/26 11:43:41;;;;;;;;;;;21.40;53.30;;;;;;465899;255;1197;-39
2022/05/26 11:45:42;;;;;;;;;;;21.40;53.30;;;;;;467722;255;1304;-39
2022/05/26 11:47:44;;;;;;;;;;;21.40;53.20;;;;;;465706;255;1198;-39
2022/05/26 11:49:46;;;;;;;;;;;21.40;53.30;;;;;;468060;254;1320;-39
2022/05/26 11:51:46;;;;;;;;;;;21.40;53.30;;;;;;465996;255;2139;-39
2022/05/26 11:53:48;;;;;;;;;;;21.40;53.30;;;;;;467604;255;1219;-39
2022/05/26 11:55:49;;;;;;;;;;;21.40;53.30;;;;;;465973;255;1226;-39
2022/05/26 11:57:50;;;;;;;;;;;21.40;53.20;;;;;;467604;255;1298;-39
2022/05/26 11:59:52;;;;;;;;;;;21.50;53.20;;;;;;465823;255;1296;-39
2022/05/26 12:01:53;;;;;;;;;;;21.40;53.20;;;;;;467782;254;1213;-39
2022/05/26 12:03:54;;;;;;;;;;;21.50;53.30;;;;;;465872;255;1369;-39
2022/05/26 12:05:56;;;;;;;;;;;21.40;53.20;;;;;;468026;254;1246;-39
2022/05/26 12:07:57;;;;;;;;;;;21.50;53.20;;;;;;465810;255;1256;-39
2022/05/26 12:09:58;;;;;;;;;;;21.50;53.10;;;;;;467634;254;1278;-39
2022/05/26 12:12:00;;;;;;;;;;;21.50;53.10;;;;;;465781;255;2138;-39
2022/05/26 12:14:02;;;;;;;;;;;21.50;53.10;;;;;;467608;255;2355;-39
2022/05/26 12:16:03;;;;;;;;;;;21.50;53.10;;;;;;466130;255;1355;-39
2022/05/26 12:18:04;;;;;;;;;;;21.50;53.10;;;;;;467526;255;1196;-39
2022/05/26 12:20:05;;;;;;;;;;;21.50;53.00;;;;;;466112;255;1348;-39
2022/05/26 12:22:07;;;;;;;;;;;21.50;53.00;;;;;;467499;255;1675;-39
2022/05/26 12:24:08;;;;;;;;;;;21.50;53.10;;;;;;465837;255;1317;-39
2022/05/26 12:26:09;;;;;;;;;;;21.50;53.20;;;;;;468013;254;1234;-39
2022/05/26 12:28:11;;;;;;;;;;;21.40;53.20;;;;;;465792;255;1516;-39
2022/05/26 12:30:12;;;;;;;;;;;21.50;53.20;;;;;;467980;254;1313;-39
2022/05/26 12:32:15;;;;;;;;;;;21.50;53.20;;;;;;465695;255;2222;-39
2022/05/26 12:34:15;;;;;;;;;;;21.50;53.20;;;;;;467551;255;1905;-39
2022/05/26 12:36:16;;;;;;;;;;;21.50;53.10;;;;;;466147;255;1213;-39
2022/05/26 12:38:18;;;;;;;;;;;21.40;53.00;;;;;;467640;255;1282;-39